Time;durP1;ratioP1;P1;durP2;ratioP2;P2;SDS_P1;SDS_P2;PMS_P1;PMS_P2;Temp;Humidity;BMP_temperature;BMP_pressure;BME280_temperature;BME280_humidity;BME280_pressure;Samples;Min_cycle;Max_cycle;Signal;HPM_P1;HPM_P2
2021/12/31 00:00:05;;;;;;;9.75;2.30;;;14.10;99.90;;;;;;4161256;28;20045;-66
2021/12/31 00:02:07;;;;;;;3.75;1.80;;;14.10;99.90;;;;;;4160151;28;20151;-66
2021/12/31 00:04:07;;;;;;;7.07;1.95;;;14.10;99.90;;;;;;4159773;28;20961;-66
2021/12/31 00:06:08;;;;;;;5.00;1.63;;;14.10;99.90;;;;;;4160780;28;20069;-66
2021/12/31 00:08:09;;;;;;;3.35;1.58;;;14.10;99.90;;;;;;4160542;28;20068;-66
2021/12/31 00:10:09;;;;;;;7.95;2.03;;;14.10;99.90;;;;;;4161470;28;20046;-66
2021/12/31 00:12:10;;;;;;;4.10;1.38;;;14.20;99.90;;;;;;4161699;28;20059;-66
2021/12/31 00:14:11;;;;;;;8.25;2.15;;;14.10;99.90;;;;;;4160371;28;20033;-66
2021/12/31 00:16:11;;;;;;;5.93;1.70;;;14.20;99.90;;;;;;4160371;28;20581;-66
2021/12/31 00:18:12;;;;;;;5.97;1.85;;;14.20;99.90;;;;;;4161920;28;20045;-66
2021/12/31 00:20:16;;;;;;;4.82;1.92;;;14.20;99.90;;;;;;4161284;28;20041;-66
2021/12/31 00:24:22;;;;;;;5.53;1.92;;;14.20;99.90;;;;;;4161434;28;20507;-66
2021/12/31 00:26:22;;;;;;;3.72;1.80;;;14.20;99.90;;;;;;4152663;28;20061;-66
2021/12/31 00:28:23;;;;;;;3.20;1.50;;;14.20;99.90;;;;;;4161356;28;20041;-66
2021/12/31 00:30:23;;;;;;;2.92;1.52;;;14.20;99.90;;;;;;4160127;28;20576;-66
2021/12/31 00:32:24;;;;;;;2.55;1.23;;;14.20;99.90;;;;;;4161778;28;20041;-66
2021/12/31 00:34:25;;;;;;;4.13;1.40;;;14.30;99.90;;;;;;4161436;28;20040;-66
2021/12/31 00:36:44;;;;;;;3.03;1.45;;;14.30;99.90;;;;;;4159852;28;20037;-66
2021/12/31 00:38:45;;;;;;;5.03;1.73;;;14.30;99.90;;;;;;4161475;28;20447;-66
2021/12/31 00:40:46;;;;;;;5.47;1.73;;;14.20;99.90;;;;;;4160535;28;20025;-66
2021/12/31 00:42:47;;;;;;;3.33;1.38;;;14.20;99.90;;;;;;4158771;28;20029;-66
2021/12/31 00:44:48;;;;;;;4.60;1.73;;;14.30;99.90;;;;;;4161720;28;20068;-66
2021/12/31 00:46:49;;;;;;;4.30;1.40;;;14.30;99.90;;;;;;4156637;28;20116;-66
2021/12/31 00:48:49;;;;;;;5.82;1.70;;;14.30;99.90;;;;;;4161618;28;20033;-66
2021/12/31 00:50:50;;;;;;;5.80;1.88;;;14.30;99.90;;;;;;4160609;28;20671;-66
2021/12/31 00:52:50;;;;;;;4.90;2.05;;;14.30;99.90;;;;;;4161208;28;20045;-66
2021/12/31 00:54:51;;;;;;;8.82;1.98;;;14.30;99.90;;;;;;4161121;28;20463;-66
2021/12/31 00:56:51;;;;;;;5.82;1.63;;;14.30;99.90;;;;;;4160903;28;20469;-66
2021/12/31 00:58:52;;;;;;;7.53;1.40;;;14.30;99.90;;;;;;4160901;28;20041;-66
2021/12/31 01:00:53;;;;;;;4.85;1.85;;;14.30;99.90;;;;;;4157809;28;20038;-66
2021/12/31 01:02:53;;;;;;;6.97;2.17;;;14.30;99.90;;;;;;4159772;28;20091;-66
2021/12/31 01:04:55;;;;;;;5.95;1.88;;;14.30;99.90;;;;;;4160579;28;20072;-66
2021/12/31 01:06:57;;;;;;;3.85;1.80;;;14.30;99.90;;;;;;4159586;28;20057;-66
2021/12/31 01:08:58;;;;;;;7.63;2.00;;;14.30;99.90;;;;;;4161143;28;20034;-66
2021/12/31 01:10:58;;;;;;;4.55;1.77;;;14.30;99.90;;;;;;4158729;28;20038;-66
2021/12/31 01:13:00;;;;;;;2.72;1.65;;;14.30;99.90;;;;;;4160415;28;20521;-66
2021/12/31 01:15:05;;;;;;;4.88;1.58;;;14.30;99.90;;;;;;4157714;28;20049;-66
2021/12/31 01:17:10;;;;;;;7.15;1.65;;;14.30;99.90;;;;;;4160791;28;20073;-66
2021/12/31 01:21:12;;;;;;;5.22;1.65;;;14.40;99.90;;;;;;4157470;28;20042;-66
2021/12/31 01:23:15;;;;;;;3.35;1.30;;;14.30;99.90;;;;;;4160713;28;20088;-66
2021/12/31 01:25:16;;;;;;;4.15;1.80;;;14.40;99.90;;;;;;4160000;28;20539;-67
2021/12/31 01:27:16;;;;;;;7.30;2.13;;;14.40;99.90;;;;;;4160960;28;20037;-66
2021/12/31 01:29:17;;;;;;;4.57;1.55;;;14.40;99.90;;;;;;4161912;28;20377;-66
2021/12/31 01:31:18;;;;;;;3.13;1.45;;;14.40;99.90;;;;;;4161591;28;20033;-66
2021/12/31 01:33:18;;;;;;;2.67;1.58;;;14.40;99.90;;;;;;4164287;28;20044;-66
2021/12/31 01:35:19;;;;;;;5.13;1.65;;;14.40;99.90;;;;;;4157638;28;20055;-66
2021/12/31 01:37:19;;;;;;;4.18;1.65;;;14.40;99.90;;;;;;4162408;28;20042;-66
2021/12/31 01:39:20;;;;;;;5.45;2.00;;;14.40;99.90;;;;;;4164132;28;20436;-66
2021/12/31 01:41:21;;;;;;;6.38;1.85;;;14.40;99.90;;;;;;4156234;28;20034;-66
2021/12/31 01:43:22;;;;;;;3.28;1.25;;;14.30;99.90;;;;;;4163454;28;20069;-66
2021/12/31 01:45:24;;;;;;;6.28;1.52;;;14.40;99.90;;;;;;4163201;28;20081;-66
2021/12/31 01:47:34;;;;;;;7.90;1.50;;;14.40;99.90;;;;;;4161216;28;20034;-66
2021/12/31 01:49:39;;;;;;;3.45;1.73;;;14.40;99.90;;;;;;4156444;28;20088;-66
2021/12/31 01:51:40;;;;;;;6.65;1.67;;;14.40;99.90;;;;;;4161962;28;20057;-66
2021/12/31 01:53:40;;;;;;;4.03;1.92;;;14.40;99.90;;;;;;4164143;28;20128;-66
2021/12/31 01:55:42;;;;;;;4.07;1.58;;;14.40;99.90;;;;;;4161213;28;20516;-66
2021/12/31 01:57:43;;;;;;;4.38;1.50;;;14.40;99.90;;;;;;4163766;28;20700;-66
2021/12/31 01:59:44;;;;;;;4.57;1.60;;;14.40;99.90;;;;;;4163278;28;20033;-66
2021/12/31 02:01:46;;;;;;;5.32;1.60;;;14.40;99.90;;;;;;4162565;28;20061;-67
2021/12/31 02:03:46;;;;;;;5.40;1.80;;;14.40;99.90;;;;;;4157581;28;20088;-66
2021/12/31 02:05:48;;;;;;;5.53;1.40;;;14.40;99.90;;;;;;4162459;28;20049;-66
2021/12/31 02:07:48;;;;;;;4.18;1.42;;;14.40;99.90;;;;;;4163728;28;20037;-66
2021/12/31 02:09:54;;;;;;;2.17;1.17;;;14.40;99.90;;;;;;4162928;28;20037;-66
2021/12/31 02:11:55;;;;;;;2.60;1.48;;;14.50;99.90;;;;;;4163240;28;20937;-66
2021/12/31 02:13:57;;;;;;;4.47;1.70;;;14.50;99.90;;;;;;4160489;28;20045;-66
2021/12/31 02:15:57;;;;;;;3.60;1.53;;;14.50;99.90;;;;;;4157948;28;20042;-66
2021/12/31 02:17:59;;;;;;;4.65;1.83;;;14.50;99.90;;;;;;4162809;28;20036;-66
2021/12/31 02:20:05;;;;;;;3.45;1.63;;;14.40;99.90;;;;;;4162481;28;20037;-66
2021/12/31 02:22:07;;;;;;;5.80;1.60;;;14.40;99.90;;;;;;4161066;28;20065;-66
2021/12/31 02:24:08;;;;;;;4.50;1.55;;;14.40;99.90;;;;;;4161376;28;20133;-66
2021/12/31 02:26:10;;;;;;;5.13;1.77;;;14.40;99.90;;;;;;4162310;28;20080;-66
2021/12/31 02:28:10;;;;;;;8.18;1.73;;;14.40;99.90;;;;;;4164006;28;20076;-66
2021/12/31 02:30:11;;;;;;;5.65;1.77;;;14.40;99.90;;;;;;4162204;28;20037;-66
2021/12/31 02:32:12;;;;;;;2.92;1.42;;;14.40;99.90;;;;;;4161903;28;20034;-66
2021/12/31 02:34:12;;;;;;;3.88;1.42;;;14.50;99.90;;;;;;4161294;28;20845;-66
2021/12/31 02:36:13;;;;;;;3.95;1.50;;;14.50;99.90;;;;;;4159632;28;20048;-66
2021/12/31 02:38:14;;;;;;;2.17;1.10;;;14.50;99.90;;;;;;4162745;28;20045;-66
2021/12/31 02:40:16;;;;;;;4.43;1.60;;;14.50;99.90;;;;;;4162112;28;20109;-68
2021/12/31 02:42:17;;;;;;;2.65;1.33;;;14.40;99.90;;;;;;4163222;28;20492;-66
2021/12/31 02:44:17;;;;;;;4.45;1.60;;;14.40;99.90;;;;;;4163233;28;20037;-66
2021/12/31 02:46:18;;;;;;;3.05;1.55;;;14.50;99.90;;;;;;4159388;28;20459;-66
2021/12/31 02:48:25;;;;;;;2.63;1.30;;;14.50;99.90;;;;;;4163324;28;20099;-66
2021/12/31 02:50:33;;;;;;;5.28;1.52;;;14.50;99.90;;;;;;4162066;28;20045;-66
2021/12/31 02:52:34;;;;;;;5.18;1.63;;;14.50;99.90;;;;;;4163879;28;20073;-66
2021/12/31 02:54:37;;;;;;;5.07;1.60;;;14.50;99.90;;;;;;4162862;28;20046;-66
2021/12/31 02:56:38;;;;;;;5.82;1.30;;;14.40;99.90;;;;;;4163138;28;20041;-66
2021/12/31 02:58:40;;;;;;;4.80;1.50;;;14.40;99.90;;;;;;4161099;28;20041;-66
2021/12/31 03:00:42;;;;;;;3.57;1.53;;;14.40;99.90;;;;;;4162347;28;20386;-66
2021/12/31 03:02:43;;;;;;;2.95;1.20;;;14.50;99.90;;;;;;4160670;28;20037;-66
2021/12/31 03:04:44;;;;;;;2.92;1.52;;;14.50;99.90;;;;;;4161994;28;20034;-66
2021/12/31 03:06:46;;;;;;;6.28;2.15;;;14.40;99.90;;;;;;4162158;28;20056;-66
2021/12/31 03:08:51;;;;;;;6.60;1.63;;;14.40;99.90;;;;;;4159707;28;20552;-66
2021/12/31 03:10:53;;;;;;;3.03;1.55;;;14.40;99.90;;;;;;4161742;28;20481;-66
2021/12/31 03:12:54;;;;;;;3.38;1.40;;;14.40;99.90;;;;;;4162688;28;20040;-66
2021/12/31 03:14:55;;;;;;;5.72;1.35;;;14.40;99.90;;;;;;4162388;28;20045;-66
2021/12/31 03:16:57;;;;;;;5.15;1.60;;;14.40;99.90;;;;;;4162458;28;20045;-66
2021/12/31 03:18:58;;;;;;;4.90;2.13;;;14.40;99.90;;;;;;4159878;28;20043;-66
2021/12/31 03:21:06;;;;;;;4.88;1.70;;;14.40;99.90;;;;;;4160529;28;20069;-66
2021/12/31 03:23:07;;;;;;;3.85;1.38;;;14.40;99.90;;;;;;4162922;28;20069;-66
2021/12/31 03:25:10;;;;;;;5.72;1.75;;;14.30;99.90;;;;;;4159999;28;20084;-67
2021/12/31 03:27:10;;;;;;;;;;;14.40;99.90;;;;;;4158777;28;20038;-66
2021/12/31 03:29:11;;;;;;;5.10;1.60;;;14.40;99.90;;;;;;4162817;28;20308;-66
2021/12/31 03:31:12;;;;;;;3.72;1.45;;;14.40;99.90;;;;;;4162176;28;20038;-66
2021/12/31 03:33:13;;;;;;;6.05;1.77;;;14.30;99.90;;;;;;4161018;28;20041;-66
2021/12/31 03:35:14;;;;;;;8.30;2.08;;;14.40;99.90;;;;;;4162084;28;20068;-66
2021/12/31 03:37:14;;;;;;;4.97;1.75;;;14.30;99.90;;;;;;4160899;28;20042;-66
2021/12/31 03:39:15;;;;;;;4.60;1.45;;;14.40;99.90;;;;;;4162567;28;20038;-66
2021/12/31 03:41:15;;;;;;;4.47;1.88;;;14.30;99.90;;;;;;4161491;28;20408;-67
2021/12/31 03:43:16;;;;;;;3.55;1.27;;;14.30;99.90;;;;;;4162093;28;20033;-66
2021/12/31 03:45:17;;;;;;;5.55;1.40;;;14.30;99.90;;;;;;4160730;28;20408;-66
2021/12/31 03:47:17;;;;;;;5.88;1.60;;;14.30;99.90;;;;;;4162469;28;20041;-67
2021/12/31 03:49:18;;;;;;;2.22;1.20;;;14.30;99.90;;;;;;4154286;28;20037;-66
2021/12/31 03:51:19;;;;;;;4.10;1.55;;;14.30;99.90;;;;;;4161697;28;20030;-66
2021/12/31 03:53:19;;;;;;;4.47;1.52;;;14.30;99.90;;;;;;4160824;28;20033;-67
2021/12/31 03:55:21;;;;;;;4.40;1.63;;;14.30;99.90;;;;;;4156997;28;20050;-66
2021/12/31 03:57:22;;;;;;;2.40;1.10;;;14.30;99.90;;;;;;4161949;28;20102;-67
2021/12/31 03:59:22;;;;;;;7.22;1.75;;;14.30;99.90;;;;;;4162140;28;20061;-66
2021/12/31 04:01:23;;;;;;;4.32;1.50;;;14.20;99.90;;;;;;4161303;28;20038;-67
2021/12/31 04:03:23;;;;;;;6.95;1.50;;;14.20;99.90;;;;;;4159090;28;20041;-66
2021/12/31 04:05:25;;;;;;;4.13;1.30;;;14.20;99.90;;;;;;4160707;28;20056;-66
2021/12/31 04:07:25;;;;;;;3.72;1.40;;;14.20;99.90;;;;;;4162335;28;20132;-66
2021/12/31 04:09:26;;;;;;;3.55;1.50;;;14.20;99.90;;;;;;4162494;28;20042;-67
2021/12/31 04:11:26;;;;;;;5.05;1.90;;;14.20;99.90;;;;;;4161741;28;20033;-66
2021/12/31 04:13:27;;;;;;;6.70;1.38;;;14.20;99.90;;;;;;4159198;28;20038;-66
2021/12/31 04:15:28;;;;;;;4.53;1.40;;;14.20;99.90;;;;;;4160916;28;20045;-66
2021/12/31 04:17:28;;;;;;;3.33;1.63;;;14.20;99.90;;;;;;4161940;28;20046;-66
2021/12/31 04:19:30;;;;;;;3.50;1.50;;;14.20;99.90;;;;;;4161677;28;20087;-66
2021/12/31 04:21:31;;;;;;;4.45;1.30;;;14.20;99.90;;;;;;4160044;28;20033;-66
2021/12/31 04:23:35;;;;;;;5.28;1.70;;;14.20;99.90;;;;;;4161360;28;20046;-66
2021/12/31 04:25:37;;;;;;;4.68;1.58;;;14.20;99.90;;;;;;4161473;28;20056;-66
2021/12/31 04:27:38;;;;;;;7.28;2.17;;;14.20;99.90;;;;;;4147471;28;20049;-66
2021/12/31 04:29:39;;;;;;;3.30;1.60;;;14.10;99.90;;;;;;4161005;28;20121;-66
2021/12/31 04:31:40;;;;;;;2.08;1.15;;;14.10;99.90;;;;;;4161214;28;20052;-66
2021/12/31 04:33:40;;;;;;;3.90;1.50;;;14.10;99.90;;;;;;4159796;28;20908;-66
2021/12/31 04:35:41;;;;;;;2.35;1.40;;;14.10;99.90;;;;;;4160902;28;20046;-66
2021/12/31 04:37:42;;;;;;;8.48;1.85;;;14.10;99.90;;;;;;4161993;28;20034;-66
2021/12/31 04:39:42;;;;;;;4.78;1.60;;;14.10;99.90;;;;;;4161827;28;20140;-68
2021/12/31 04:41:43;;;;;;;4.25;1.77;;;14.00;99.90;;;;;;4160827;28;20137;-68
2021/12/31 04:43:43;;;;;;;2.75;1.25;;;14.10;99.90;;;;;;4158298;28;20072;-68
2021/12/31 04:45:44;;;;;;;8.32;1.60;;;14.10;99.90;;;;;;4159484;28;20069;-68
2021/12/31 04:47:45;;;;;;;2.88;1.30;;;14.10;99.90;;;;;;4161666;28;20041;-68
2021/12/31 04:49:45;;;;;;;4.22;1.45;;;14.10;99.90;;;;;;4160414;28;20060;-68
2021/12/31 04:51:46;;;;;;;5.35;1.40;;;14.10;99.90;;;;;;4159092;28;20037;-70
2021/12/31 04:53:47;;;;;;;4.70;1.42;;;14.10;99.90;;;;;;4161264;28;20061;-69
2021/12/31 04:55:48;;;;;;;4.43;1.15;;;14.10;99.90;;;;;;4160921;28;20092;-68
2021/12/31 04:57:49;;;;;;;3.63;1.65;;;14.10;99.90;;;;;;4161077;28;20037;-69
2021/12/31 04:59:50;;;;;;;4.10;1.63;;;14.00;99.90;;;;;;4145508;28;20034;-66
2021/12/31 05:01:50;;;;;;;3.25;1.35;;;14.10;99.90;;;;;;4157405;28;20120;-67
2021/12/31 05:03:51;;;;;;;3.80;1.40;;;14.10;99.90;;;;;;4157832;28;20716;-66
2021/12/31 05:05:51;;;;;;;3.70;1.38;;;14.00;99.90;;;;;;4164011;28;20057;-67
2021/12/31 05:07:52;;;;;;;2.90;1.10;;;14.00;99.90;;;;;;4160301;28;20029;-66
2021/12/31 05:09:52;;;;;;;5.38;1.75;;;14.00;99.90;;;;;;4164862;28;20374;-66
2021/12/31 05:11:53;;;;;;;4.18;1.52;;;14.00;99.90;;;;;;4163583;28;20049;-66
2021/12/31 05:13:54;;;;;;;5.00;1.90;;;14.00;99.90;;;;;;4164453;28;20037;-68
2021/12/31 05:16:00;;;;;;;5.88;1.40;;;14.00;99.90;;;;;;4159249;28;20041;-68
2021/12/31 05:18:01;;;;;;;5.20;1.38;;;14.00;99.90;;;;;;4164164;28;20515;-68
2021/12/31 05:20:04;;;;;;;5.20;1.58;;;13.90;99.90;;;;;;4164841;28;20033;-68
2021/12/31 05:22:04;;;;;;;3.58;1.67;;;14.00;99.90;;;;;;4162721;28;20044;-66
2021/12/31 05:24:05;;;;;;;2.40;1.40;;;14.00;99.90;;;;;;4160320;28;20038;-66
2021/12/31 05:26:06;;;;;;;2.90;1.55;;;13.90;99.90;;;;;;4163641;28;20407;-66
2021/12/31 05:28:06;;;;;;;2.50;1.20;;;13.90;99.90;;;;;;4163221;28;20119;-66
2021/12/31 05:30:07;;;;;;;2.08;1.17;;;13.90;99.90;;;;;;4163663;28;20048;-66
2021/12/31 05:32:08;;;;;;;3.22;1.13;;;13.90;99.90;;;;;;4162896;28;20030;-66
2021/12/31 05:34:08;;;;;;;2.58;1.40;;;13.90;99.90;;;;;;4164452;28;20504;-66
2021/12/31 05:36:09;;;;;;;2.13;1.52;;;13.90;99.90;;;;;;4163382;28;20045;-66
2021/12/31 05:38:10;;;;;;;2.90;1.20;;;13.90;99.90;;;;;;4162025;28;20042;-66
2021/12/31 05:40:10;;;;;;;5.35;1.40;;;13.90;99.90;;;;;;4163847;28;20042;-67
2021/12/31 05:42:12;;;;;;;4.53;1.65;;;13.90;99.90;;;;;;4163257;28;20033;-66
2021/12/31 05:44:12;;;;;;;4.50;1.50;;;13.90;99.90;;;;;;4163927;28;20037;-66
2021/12/31 05:46:13;;;;;;;4.43;1.77;;;13.90;99.90;;;;;;4161977;28;20045;-66
2021/12/31 05:48:14;;;;;;;7.47;1.98;;;13.90;99.90;;;;;;4164228;28;20030;-66
2021/12/31 05:50:32;;;;;;;4.28;1.50;;;13.90;99.90;;;;;;4162822;28;20037;-66
2021/12/31 05:52:32;;;;;;;4.93;1.70;;;13.90;99.90;;;;;;4147340;28;20497;-66
2021/12/31 05:54:33;;;;;;;6.78;1.52;;;13.90;99.90;;;;;;4164231;28;20053;-66
2021/12/31 05:56:34;;;;;;;4.82;1.77;;;13.90;99.90;;;;;;4163513;28;20045;-66
2021/12/31 05:58:34;;;;;;;4.03;1.70;;;13.80;99.90;;;;;;4157510;28;20420;-66
2021/12/31 06:00:35;;;;;;;5.97;1.50;;;13.80;99.90;;;;;;4163189;28;20394;-66
2021/12/31 06:02:35;;;;;;;4.90;1.42;;;13.90;99.90;;;;;;4146561;28;20048;-66
2021/12/31 06:04:37;;;;;;;2.78;1.30;;;13.90;99.90;;;;;;4163422;28;20369;-66
2021/12/31 06:06:37;;;;;;;2.90;1.33;;;13.90;99.90;;;;;;4159036;28;20072;-66
2021/12/31 06:08:38;;;;;;;5.82;1.35;;;13.90;99.90;;;;;;4163677;28;20033;-66
2021/12/31 06:10:41;;;;;;;7.22;1.67;;;13.90;99.90;;;;;;4161577;28;20401;-66
2021/12/31 06:12:43;;;;;;;5.95;2.05;;;13.80;99.90;;;;;;4161152;28;20099;-66
2021/12/31 06:14:43;;;;;;;3.83;1.23;;;13.80;99.90;;;;;;4158358;28;20038;-66
2021/12/31 06:16:46;;;;;;;3.17;1.42;;;13.90;99.90;;;;;;4161558;28;20412;-66
2021/12/31 06:18:47;;;;;;;2.08;1.05;;;13.90;99.90;;;;;;4161873;28;20049;-66
2021/12/31 06:20:47;;;;;;;5.88;1.60;;;13.90;99.90;;;;;;4160898;28;20443;-67
2021/12/31 06:22:48;;;;;;;4.00;1.48;;;13.90;99.90;;;;;;4160156;28;20124;-67
2021/12/31 06:24:51;;;;;;;4.35;1.17;;;13.90;99.90;;;;;;4158414;28;20029;-67
2021/12/31 06:26:51;;;;;;;2.75;1.60;;;13.90;99.90;;;;;;4160319;28;20499;-67
2021/12/31 06:28:52;;;;;;;4.53;1.42;;;13.90;99.90;;;;;;4162596;28;20033;-68
2021/12/31 06:30:53;;;;;;;4.50;1.77;;;13.90;99.90;;;;;;4156821;28;20054;-68
2021/12/31 06:32:54;;;;;;;5.25;1.52;;;13.90;99.90;;;;;;4145310;28;20046;-67
2021/12/31 06:34:54;;;;;;;2.35;1.10;;;13.90;99.90;;;;;;4158616;28;20064;-67
2021/12/31 06:36:55;;;;;;;4.35;1.52;;;13.90;99.90;;;;;;4159370;28;20090;-68
2021/12/31 06:38:57;;;;;;;3.13;1.27;;;13.90;99.90;;;;;;4161102;28;20065;-68
2021/12/31 06:40:58;;;;;;;4.45;1.48;;;13.90;99.90;;;;;;4130446;28;20070;-68
2021/12/31 06:42:59;;;;;;;4.45;1.38;;;13.80;99.90;;;;;;4160296;28;20033;-68
2021/12/31 06:44:59;;;;;;;2.60;1.20;;;13.80;99.90;;;;;;4159807;28;20084;-68
2021/12/31 06:47:00;;;;;;;3.08;1.35;;;13.90;99.90;;;;;;4158305;28;20446;-68
2021/12/31 06:49:01;;;;;;;3.05;1.38;;;13.80;99.90;;;;;;4161973;28;20161;-68
2021/12/31 06:51:02;;;;;;;5.32;1.25;;;13.80;99.90;;;;;;4158952;28;20119;-68
2021/12/31 06:53:03;;;;;;;4.20;1.17;;;13.80;99.90;;;;;;4160508;28;20040;-69
2021/12/31 06:55:05;;;;;;;3.75;1.67;;;13.80;99.90;;;;;;4165551;28;20080;-68
2021/12/31 06:57:06;;;;;;;4.00;1.40;;;13.70;99.90;;;;;;4150183;28;20040;-69
2021/12/31 06:59:06;;;;;;;4.18;1.48;;;13.70;99.90;;;;;;4137386;28;20046;-67
2021/12/31 07:01:07;;;;;;;6.72;1.42;;;13.70;99.90;;;;;;4162328;28;20041;-67
2021/12/31 07:03:10;;;;;;;4.05;1.25;;;13.70;99.90;;;;;;4162682;28;20534;-68
2021/12/31 07:05:17;;;;;;;5.60;1.33;;;13.70;99.90;;;;;;4149246;28;20485;-68
2021/12/31 07:07:18;;;;;;;3.65;1.48;;;13.70;99.90;;;;;;4163400;28;20577;-68
2021/12/31 07:09:21;;;;;;;3.03;1.25;;;13.70;99.90;;;;;;4166611;28;20125;-67
2021/12/31 07:11:25;;;;;;;5.63;2.03;;;13.60;99.90;;;;;;4164434;28;20059;-68
2021/12/31 07:13:26;;;;;;;5.78;1.30;;;13.60;99.90;;;;;;4163995;28;20048;-68
2021/12/31 07:15:27;;;;;;;7.07;1.77;;;13.60;99.90;;;;;;4163676;28;20539;-68
2021/12/31 07:17:31;;;;;;;4.18;1.45;;;13.60;99.90;;;;;;4153066;28;20060;-69
2021/12/31 07:19:31;;;;;;;2.83;1.30;;;13.60;99.90;;;;;;4164022;28;20054;-68
2021/12/31 07:21:32;;;;;;;3.65;1.60;;;13.60;99.90;;;;;;4162608;28;20068;-68
2021/12/31 07:23:33;;;;;;;3.03;1.13;;;13.50;99.90;;;;;;4158149;28;20037;-68
2021/12/31 07:25:34;;;;;;;2.72;1.23;;;13.50;99.90;;;;;;4166709;28;20216;-67
2021/12/31 07:27:36;;;;;;;4.63;1.30;;;13.50;99.90;;;;;;4141635;28;20046;-68
2021/12/31 07:29:40;;;;;;;2.53;1.20;;;13.50;99.90;;;;;;4162636;28;20044;-68
2021/12/31 07:31:41;;;;;;;3.55;1.77;;;13.50;99.90;;;;;;4141597;28;20692;-68
2021/12/31 07:33:41;;;;;;;4.53;1.60;;;13.50;99.90;;;;;;4146117;28;20064;-69
2021/12/31 07:35:42;;;;;;;4.07;1.42;;;13.40;99.90;;;;;;4160959;28;20042;-68
2021/12/31 07:37:43;;;;;;;6.95;2.08;;;13.40;99.90;;;;;;4161475;28;20045;-68
2021/12/31 07:39:48;;;;;;;6.10;2.40;;;13.40;99.90;;;;;;4147500;28;20041;-68
2021/12/31 07:41:48;;;;;;;4.57;1.80;;;13.40;99.90;;;;;;4154305;28;20084;-67
2021/12/31 07:43:49;;;;;;;5.18;1.92;;;13.40;99.90;;;;;;4122554;28;20038;-67
2021/12/31 07:45:51;;;;;;;5.00;1.80;;;13.40;99.90;;;;;;4161669;28;20079;-69
2021/12/31 07:47:51;;;;;;;4.13;1.60;;;13.30;99.90;;;;;;4155259;28;20042;-68
2021/12/31 07:49:52;;;;;;;4.57;1.75;;;13.30;99.90;;;;;;4156490;28;20139;-68
2021/12/31 07:51:52;;;;;;;4.03;1.63;;;13.30;99.90;;;;;;4159242;28;20038;-68
2021/12/31 07:53:53;;;;;;;4.20;1.35;;;13.30;99.90;;;;;;4153217;28;20095;-68
2021/12/31 07:55:54;;;;;;;3.63;1.58;;;13.30;99.90;;;;;;4163462;28;20045;-69
2021/12/31 07:57:54;;;;;;;3.10;1.50;;;13.20;99.90;;;;;;4162951;28;20040;-68
2021/12/31 07:59:55;;;;;;;6.97;1.35;;;13.20;99.90;;;;;;4162719;28;20037;-68
2021/12/31 08:01:55;;;;;;;6.30;1.80;;;13.20;99.90;;;;;;4160230;28;20037;-69
2021/12/31 08:03:56;;;;;;;5.10;1.60;;;13.20;99.90;;;;;;4161377;28;20037;-68
2021/12/31 08:05:56;;;;;;;3.45;1.52;;;13.10;99.90;;;;;;4158758;28;20497;-69
2021/12/31 08:07:59;;;;;;;5.18;1.83;;;13.10;99.90;;;;;;4160651;28;20090;-69
2021/12/31 08:10:00;;;;;;;;;;;13.20;99.90;;;;;;4161671;28;20144;-69
2021/12/31 08:12:00;;;;;;;3.90;1.73;;;13.20;99.90;;;;;;4161386;28;19963;-69
2021/12/31 08:14:01;;;;;;;2.90;1.27;;;13.20;99.90;;;;;;4161399;28;20041;-68
2021/12/31 08:16:02;;;;;;;2.30;1.60;;;13.10;99.90;;;;;;4157858;28;20040;-68
2021/12/31 08:18:02;;;;;;;5.28;1.85;;;13.20;99.90;;;;;;4163083;28;20064;-69
2021/12/31 08:20:04;;;;;;;3.97;1.75;;;13.20;99.90;;;;;;4151825;28;20116;-70
2021/12/31 08:22:04;;;;;;;1.73;1.05;;;13.20;99.90;;;;;;4162164;28;20037;-69
2021/12/31 08:24:05;;;;;;;3.47;1.40;;;13.30;99.90;;;;;;4167373;28;20120;-68
2021/12/31 08:26:06;;;;;;;5.90;1.30;;;13.30;99.90;;;;;;4167451;28;20053;-68
2021/12/31 08:28:07;;;;;;;2.83;1.30;;;13.20;99.90;;;;;;4162052;28;20037;-69
2021/12/31 08:30:08;;;;;;;3.47;1.52;;;13.30;99.90;;;;;;4157126;28;20045;-69
2021/12/31 08:32:09;;;;;;;2.95;1.40;;;13.30;99.90;;;;;;4157492;28;20049;-69
2021/12/31 08:34:10;;;;;;;4.95;1.58;;;13.30;99.90;;;;;;4158375;28;20091;-69
2021/12/31 08:36:11;;;;;;;4.15;1.35;;;13.30;99.90;;;;;;4157940;28;20079;-68
2021/12/31 08:38:11;;;;;;;2.50;1.20;;;13.20;99.90;;;;;;4159375;28;20473;-69
2021/12/31 08:40:12;;;;;;;3.72;1.30;;;13.20;99.90;;;;;;4164768;28;20116;-69
2021/12/31 08:42:13;;;;;;;3.53;1.27;;;13.20;99.90;;;;;;4165435;28;20049;-69
2021/12/31 08:44:14;;;;;;;4.45;1.42;;;13.20;99.90;;;;;;4167897;28;20040;-69
2021/12/31 08:46:14;;;;;;;4.15;1.10;;;13.20;99.90;;;;;;4164669;28;20077;-69
2021/12/31 08:48:15;;;;;;;6.90;1.40;;;13.20;99.90;;;;;;4165505;28;20044;-69
2021/12/31 08:50:15;;;;;;;2.30;1.33;;;13.20;99.90;;;;;;4165761;28;20064;-69
2021/12/31 08:52:16;;;;;;;2.33;1.23;;;13.20;99.90;;;;;;4155520;28;20044;-69
2021/12/31 08:54:16;;;;;;;3.63;1.27;;;13.20;99.90;;;;;;4168535;28;20117;-69
2021/12/31 08:56:17;;;;;;;1.73;1.10;;;13.30;99.90;;;;;;4166869;28;20038;-70
2021/12/31 08:58:18;;;;;;;3.25;1.30;;;13.30;99.90;;;;;;4167914;28;20440;-69
2021/12/31 09:00:18;;;;;;;3.80;1.52;;;13.20;99.90;;;;;;4163237;28;20120;-69
2021/12/31 09:02:19;;;;;;;3.85;1.48;;;13.30;99.90;;;;;;4108442;28;20617;-70
2021/12/31 09:04:19;;;;;;;1.70;1.20;;;13.30;99.90;;;;;;4155848;28;20030;-69
2021/12/31 09:06:20;;;;;;;2.90;1.40;;;13.30;99.90;;;;;;4154011;28;20517;-67
2021/12/31 09:08:23;;;;;;;2.42;1.10;;;13.30;99.90;;;;;;4164031;28;20086;-69
2021/12/31 09:10:24;;;;;;;2.88;1.40;;;13.30;99.90;;;;;;4137545;28;20041;-70
2021/12/31 09:12:25;;;;;;;2.72;1.40;;;13.40;99.90;;;;;;4136161;28;20097;-69
2021/12/31 09:14:25;;;;;;;2.92;1.50;;;13.30;99.90;;;;;;4167588;28;20033;-69
2021/12/31 09:16:26;;;;;;;3.55;1.30;;;13.40;99.90;;;;;;4162028;28;20064;-69
2021/12/31 09:18:26;;;;;;;3.00;1.35;;;13.40;99.90;;;;;;4160538;28;20050;-70
2021/12/31 09:20:28;;;;;;;3.70;1.30;;;13.40;99.90;;;;;;4155003;28;20044;-69
2021/12/31 09:22:29;;;;;;;2.65;1.55;;;13.50;99.90;;;;;;4164043;28;20075;-69
2021/12/31 09:24:30;;;;;;;3.78;1.40;;;13.40;99.90;;;;;;4156361;28;20041;-69
2021/12/31 09:26:31;;;;;;;3.70;1.38;;;13.40;99.90;;;;;;4144437;28;20485;-69
2021/12/31 09:28:31;;;;;;;2.58;1.30;;;13.40;99.90;;;;;;4163977;28;20125;-69
2021/12/31 09:30:32;;;;;;;2.85;1.50;;;13.40;99.90;;;;;;4142744;28;20045;-69
2021/12/31 09:32:33;;;;;;;1.63;1.20;;;13.40;99.90;;;;;;4161978;28;20110;-69
2021/12/31 09:34:34;;;;;;;5.20;1.52;;;13.40;99.90;;;;;;4163890;28;20488;-69
2021/12/31 09:36:35;;;;;;;3.17;1.37;;;13.50;99.90;;;;;;4161650;28;20400;-69
2021/12/31 09:38:36;;;;;;;2.75;1.30;;;13.40;99.90;;;;;;4162173;28;20041;-69
2021/12/31 09:40:38;;;;;;;5.78;1.50;;;13.50;99.90;;;;;;4126620;28;20037;-70
2021/12/31 09:42:42;;;;;;;2.10;1.30;;;13.40;99.90;;;;;;4161664;28;20103;-69
2021/12/31 09:44:47;;;;;;;2.95;1.48;;;13.40;99.90;;;;;;4161454;28;20044;-69
2021/12/31 09:46:47;;;;;;;5.45;1.73;;;13.40;99.90;;;;;;4160926;28;20288;-69
2021/12/31 09:48:50;;;;;;;1.88;1.40;;;13.40;99.90;;;;;;4162213;28;20614;-69
2021/12/31 09:50:54;;;;;;;3.17;1.42;;;13.40;99.90;;;;;;4165779;28;20419;-71
2021/12/31 09:52:55;;;;;;;5.03;1.58;;;13.40;99.90;;;;;;4163663;28;20099;-69
2021/12/31 09:54:55;;;;;;;2.45;1.60;;;13.40;99.90;;;;;;4165231;28;20121;-69
2021/12/31 09:56:56;;;;;;;3.80;1.52;;;13.40;99.90;;;;;;4143781;28;20030;-69
2021/12/31 09:58:56;;;;;;;2.30;1.30;;;13.40;99.90;;;;;;4165402;28;20129;-70
2021/12/31 10:01:00;;;;;;;4.80;1.60;;;13.40;99.90;;;;;;4163939;28;20388;-70
2021/12/31 10:03:16;;;;;;;3.72;1.58;;;13.50;99.90;;;;;;4167256;28;20447;-70
2021/12/31 10:05:16;;;;;;;4.22;1.38;;;13.40;99.90;;;;;;4164337;28;20192;-70
2021/12/31 10:07:20;;;;;;;2.00;1.20;;;13.50;99.90;;;;;;4165032;28;20084;-70
2021/12/31 10:09:21;;;;;;;1.77;1.20;;;13.50;99.90;;;;;;4170287;28;20048;-70
2021/12/31 10:11:23;;;;;;;6.03;1.40;;;13.60;99.90;;;;;;4164166;28;20411;-69
2021/12/31 10:13:24;;;;;;;2.53;1.80;;;13.50;99.90;;;;;;4167649;28;20092;-69
2021/12/31 10:15:25;;;;;;;1.77;1.30;;;13.60;99.90;;;;;;4161137;28;20041;-69
2021/12/31 10:17:35;;;;;;;3.08;1.50;;;13.60;99.90;;;;;;4157844;28;20033;-69
2021/12/31 10:19:36;;;;;;;2.40;1.58;;;13.60;99.90;;;;;;4167747;28;20038;-70
2021/12/31 10:21:43;;;;;;;4.07;1.85;;;13.60;99.90;;;;;;4164984;28;20045;-70
2021/12/31 10:23:44;;;;;;;2.50;1.33;;;13.60;99.90;;;;;;4157799;28;20104;-69
2021/12/31 10:25:45;;;;;;;4.63;1.48;;;13.60;99.90;;;;;;4163578;28;20558;-69
2021/12/31 10:27:47;;;;;;;3.70;1.55;;;13.60;99.90;;;;;;4157935;28;20034;-69
2021/12/31 10:29:57;;;;;;;2.90;1.80;;;13.60;99.90;;;;;;4146105;28;20033;-69
2021/12/31 10:31:58;;;;;;;3.55;1.70;;;13.60;99.90;;;;;;4160750;28;20095;-69
2021/12/31 10:33:58;;;;;;;2.55;1.40;;;13.60;99.90;;;;;;4165058;28;20053;-69
2021/12/31 10:35:59;;;;;;;4.25;1.58;;;13.60;99.90;;;;;;4166144;28;20041;-70